createdAt,value
2022-08-05T10:37:11.410Z,1.90
2022-08-05T10:40:03.911Z,2.67
2022-08-05T10:42:36.811Z,4.18
2022-08-05T10:45:21.457Z,2.60
2022-08-05T10:48:30.055Z,2.13
2022-08-05T10:51:21.824Z,1.98
2022-08-05T10:54:00.807Z,4.20
2022-08-05T10:56:31.167Z,3.08
2022-08-05T10:59:12.693Z,4.43
2022-08-05T11:02:14.510Z,5.53
2022-08-05T11:05:00.243Z,6.80
2022-08-05T11:07:33.175Z,5.70
2022-08-05T11:10:27.746Z,4.82
2022-08-05T11:12:57.599Z,4.05
2022-08-05T11:15:59.271Z,2.25
2022-08-05T11:18:34.030Z,6.60
2022-08-05T11:21:11.248Z,4.05
2022-08-05T11:24:05.259Z,3.80
2022-08-05T11:26:33.041Z,4.97
2022-08-05T11:29:13.977Z,2.63
2022-08-05T11:31:54.313Z,2.30
2022-08-05T11:34:37.578Z,3.13
2022-08-05T11:37:06.184Z,4.22
2022-08-05T11:40:00.836Z,2.05
2022-08-05T11:42:37.677Z,1.25
2022-08-05T11:45:14.575Z,5.20
2022-08-05T11:47:54.692Z,4.88
2022-08-05T11:50:22.663Z,2.50
2022-08-05T11:52:53.118Z,3.40
2022-08-05T11:55:20.340Z,2.10
2022-08-05T11:58:09.680Z,0.90
2022-08-05T12:00:38.351Z,2.05
2022-08-05T12:03:29.556Z,1.33
2022-08-05T12:06:01.714Z,3.50
2022-08-05T12:08:31.489Z,2.67
2022-08-05T12:11:05.667Z,2.88
2022-08-05T12:13:48.954Z,5.82
2022-08-05T12:16:19.398Z,2.03
2022-08-05T12:18:52.230Z,4.55
2022-08-05T12:21:41.951Z,4.25
2022-08-05T12:24:17.331Z,2.00
2022-08-05T12:26:46.796Z,3.22
2022-08-05T12:29:23.127Z,3.80
2022-08-05T12:31:54.076Z,2.92
2022-08-05T12:34:28.613Z,4.78
2022-08-05T12:37:22.804Z,3.83
2022-08-05T12:42:37.534Z,2.08
2022-08-05T12:45:08.754Z,1.48
2022-08-05T12:47:38.174Z,5.05
2022-08-05T12:50:25.289Z,3.10
2022-08-05T12:53:00.108Z,2.63
2022-08-05T12:55:32.647Z,5.03
2022-08-05T12:58:48.268Z,2.03
2022-08-05T13:02:02.133Z,3.08
2022-08-05T13:03:42.170Z,6.00
2022-08-05T13:06:16.610Z,2.22
2022-08-05T13:08:50.794Z,2.72
2022-08-05T13:12:01.102Z,2.60
2022-08-05T13:14:35.736Z,1.98
2022-08-05T13:17:16.519Z,5.88
2022-08-05T13:20:23.593Z,4.25
2022-08-05T13:22:53.111Z,2.33
2022-08-05T13:25:22.214Z,3.25
2022-08-05T13:28:07.922Z,2.47
2022-08-05T13:30:38.945Z,2.28
2022-08-05T13:33:06.254Z,4.72
2022-08-05T13:35:47.503Z,4.18
2022-08-05T13:38:30.265Z,1.60
2022-08-05T13:40:59.796Z,2.33
2022-08-05T13:43:44.650Z,0.88
2022-08-05T13:46:14.339Z,2.38
2022-08-05T13:48:57.367Z,5.03
2022-08-05T13:51:36.445Z,5.10
2022-08-05T13:54:12.462Z,2.92
2022-08-05T13:56:50.938Z,3.90
2022-08-05T13:59:21.364Z,4.13
2022-08-05T14:01:57.489Z,3.15
2022-08-05T14:04:49.922Z,4.07
2022-08-05T14:07:25.451Z,6.45
2022-08-05T14:10:18.390Z,2.60
2022-08-05T14:12:48.925Z,3.35
2022-08-05T14:16:04.903Z,4.22
2022-08-05T14:18:04.238Z,3.83
2022-08-05T14:20:31.921Z,3.45
2022-08-05T14:22:59.865Z,3.53
2022-08-05T14:25:28.036Z,3.13
2022-08-05T14:27:55.724Z,3.08
2022-08-05T14:30:22.670Z,1.83
2022-08-05T14:32:53.789Z,1.88
2022-08-05T14:35:22.882Z,4.50
2022-08-05T14:37:55.006Z,2.67
2022-08-05T14:40:24.482Z,2.88
2022-08-05T14:45:18.750Z,2.88
2022-08-05T14:48:02.913Z,4.38
2022-08-05T14:50:31.968Z,2.75
2022-08-05T14:52:59.571Z,4.38
2022-08-05T14:55:28.550Z,6.43
2022-08-05T14:58:11.157Z,2.97
2022-08-05T15:00:58.840Z,2.90
2022-08-05T15:03:33.537Z,5.50
2022-08-05T15:06:07.402Z,4.93
2022-08-05T15:08:59.233Z,2.60
2022-08-05T15:11:53.200Z,3.70
2022-08-05T15:14:35.050Z,2.53
2022-08-05T15:17:20.863Z,7.18
2022-08-05T15:19:56.254Z,3.40
2022-08-05T15:22:27.120Z,7.03
2022-08-05T15:24:55.536Z,4.25
2022-08-05T15:27:22.516Z,2.03
2022-08-05T15:29:54.229Z,2.85
2022-08-05T15:32:27.429Z,4.72
2022-08-05T15:34:56.845Z,2.20
2022-08-05T15:38:34.762Z,6.88
2022-08-05T15:40:58.612Z,7.60
2022-08-05T15:43:12.665Z,3.85
2022-08-05T15:45:46.913Z,2.97
2022-08-05T15:48:15.439Z,3.45
2022-08-05T15:50:43.884Z,5.75
2022-08-05T15:53:13.221Z,6.90
2022-08-05T15:56:03.778Z,5.25
2022-08-05T15:58:35.439Z,6.00
2022-08-05T16:01:17.044Z,7.55
2022-08-05T16:03:48.497Z,7.70
2022-08-05T16:06:19.960Z,6.55
2022-08-05T16:08:50.930Z,9.05
2022-08-05T16:11:21.131Z,6.53
2022-08-05T16:14:05.804Z,5.40
2022-08-05T16:16:33.388Z,2.70
2022-08-05T16:19:00.379Z,3.72
2022-08-05T16:21:58.828Z,3.88
2022-08-05T16:24:41.643Z,5.07
2022-08-05T16:27:03.879Z,4.25
2022-08-05T16:29:37.588Z,6.78
2022-08-05T16:32:09.751Z,7.30
2022-08-05T16:34:39.354Z,4.95
2022-08-05T16:38:02.248Z,6.18
2022-08-05T16:40:05.832Z,3.17
2022-08-05T16:42:35.119Z,6.18
2022-08-05T16:46:02.740Z,3.30
2022-08-05T16:47:55.556Z,5.47
2022-08-05T16:50:24.402Z,4.07
2022-08-05T16:52:51.540Z,5.20
2022-08-05T16:55:20.383Z,4.57
2022-08-05T16:58:00.392Z,4.45
2022-08-05T17:00:34.983Z,6.70
2022-08-05T17:03:15.128Z,4.57
2022-08-05T17:05:42.817Z,3.65
2022-08-05T17:08:10.041Z,5.07
2022-08-05T17:10:40.462Z,4.85
2022-08-05T17:13:16.784Z,5.63
2022-08-05T17:15:48.634Z,1.65
2022-08-05T17:18:17.993Z,4.63
2022-08-05T17:20:46.417Z,4.43
2022-08-05T17:24:03.155Z,3.95
2022-08-05T17:26:04.121Z,6.13
2022-08-05T17:28:31.694Z,4.50
2022-08-05T17:30:58.738Z,6.53
2022-08-05T17:33:25.721Z,5.38
2022-08-05T17:36:07.609Z,5.53
2022-08-05T17:38:36.073Z,5.63
2022-08-05T17:41:03.078Z,10.30
2022-08-05T17:43:47.295Z,3.72
2022-08-05T17:46:18.289Z,9.38
2022-08-05T17:48:47.729Z,3.08
2022-08-05T17:51:21.679Z,5.00
2022-08-05T17:53:54.405Z,6.93
2022-08-05T17:56:22.730Z,3.70
2022-08-05T17:58:51.164Z,4.93
2022-08-05T18:01:20.607Z,4.00
2022-08-05T18:03:59.596Z,5.47
2022-08-05T18:06:31.913Z,3.42
2022-08-05T18:08:59.344Z,4.18
2022-08-05T18:11:33.089Z,6.03
2022-08-05T18:14:07.309Z,7.00
2022-08-05T18:16:46.806Z,8.60
2022-08-05T18:19:22.708Z,5.00
2022-08-05T18:22:07.321Z,7.55
2022-08-05T18:24:37.855Z,7.30
2022-08-05T18:27:18.054Z,4.32
2022-08-05T18:29:52.034Z,8.60
2022-08-05T18:32:20.748Z,6.97
2022-08-05T18:34:54.917Z,4.85
2022-08-05T18:37:34.427Z,5.28
2022-08-05T18:41:50.051Z,6.10
2022-08-05T18:42:56.437Z,8.15
2022-08-05T18:45:23.900Z,5.85
2022-08-05T18:47:56.605Z,3.92
2022-08-05T18:50:46.152Z,5.50
2022-08-05T18:53:22.132Z,6.25
2022-08-05T18:55:51.654Z,5.50
2022-08-05T18:58:18.711Z,2.13
2022-08-05T19:00:54.702Z,1.98
2022-08-05T19:03:53.296Z,6.53
2022-08-05T19:06:18.632Z,6.47
2022-08-05T19:08:48.737Z,5.70
2022-08-05T19:11:16.113Z,8.38
2022-08-05T19:14:00.749Z,8.98
2022-08-05T19:16:46.593Z,5.45
2022-08-05T19:19:14.683Z,5.38
2022-08-05T19:21:47.729Z,3.90
2022-08-05T19:24:18.424Z,6.10
2022-08-05T19:27:03.918Z,3.55
2022-08-05T19:29:36.254Z,4.05
2022-08-05T19:32:05.309Z,5.90
2022-08-05T19:34:36.176Z,5.43
2022-08-05T19:37:03.111Z,6.22
2022-08-05T19:39:30.344Z,10.00
2022-08-05T19:42:07.230Z,10.05
2022-08-05T19:44:44.592Z,2.42
2022-08-05T19:47:15.260Z,7.55
2022-08-05T19:49:45.971Z,9.32
2022-08-05T19:52:31.814Z,9.40
2022-08-05T19:55:06.933Z,6.03
2022-08-05T19:57:47.373Z,7.53
2022-08-05T20:00:22.433Z,5.57
2022-08-05T20:02:49.236Z,11.05
2022-08-05T20:05:24.544Z,7.47
2022-08-05T20:07:56.283Z,3.85
2022-08-05T20:10:25.932Z,5.72
2022-08-05T20:12:53.138Z,5.97
2022-08-05T20:15:48.640Z,5.97
2022-08-05T20:18:32.813Z,7.53
2022-08-05T20:20:59.932Z,5.30
2022-08-05T20:23:40.205Z,5.55
2022-08-05T20:26:16.057Z,5.00
2022-08-05T20:28:50.458Z,2.60
2022-08-05T20:31:23.075Z,6.35
2022-08-05T20:33:56.007Z,6.05
2022-08-05T20:36:24.545Z,2.97
2022-08-05T20:38:57.927Z,5.45
2022-08-05T20:41:44.201Z,9.90
2022-08-05T20:44:17.435Z,9.10
2022-08-05T20:46:48.368Z,10.18
2022-08-05T20:49:23.997Z,5.65
2022-08-05T20:54:25.824Z,8.93
2022-08-05T20:57:14.153Z,8.95
2022-08-05T21:00:10.351Z,5.50
2022-08-05T21:02:30.066Z,6.95
2022-08-05T21:04:57.973Z,5.60
2022-08-05T21:07:50.976Z,7.70
2022-08-05T21:10:16.950Z,4.15
2022-08-05T21:13:09.020Z,5.55
2022-08-05T21:15:33.799Z,9.73
2022-08-05T21:18:01.215Z,6.40
2022-08-05T21:20:33.567Z,5.65
2022-08-05T21:23:01.500Z,9.77
2022-08-05T21:25:33.807Z,7.50
2022-08-05T21:28:03.053Z,6.93
2022-08-05T21:30:31.667Z,11.43
2022-08-05T21:32:59.883Z,11.02
2022-08-05T21:35:43.792Z,5.80
2022-08-05T21:38:19.414Z,6.28
2022-08-05T21:40:47.066Z,8.68
2022-08-05T21:43:24.242Z,14.80
2022-08-05T21:45:57.584Z,8.73
2022-08-05T21:48:28.551Z,5.72
2022-08-05T21:50:56.383Z,9.95
2022-08-05T21:53:27.467Z,9.32
2022-08-05T21:56:04.451Z,4.80
2022-08-05T21:58:33.519Z,9.27
2022-08-05T22:01:01.476Z,11.10
2022-08-05T22:03:52.122Z,8.15
2022-08-05T22:06:22.449Z,9.88
2022-08-05T22:08:52.618Z,8.35
2022-08-05T22:11:35.417Z,11.35
2022-08-05T22:14:05.719Z,10.63
2022-08-05T22:16:56.960Z,8.25
2022-08-05T22:20:02.125Z,7.35
2022-08-05T22:22:14.516Z,9.85
2022-08-05T22:25:00.374Z,11.30
2022-08-05T22:28:09.354Z,12.88
2022-08-05T22:30:35.200Z,9.95
2022-08-05T22:33:15.269Z,12.57
2022-08-05T22:35:49.304Z,16.00
2022-08-05T22:38:19.713Z,9.38
2022-08-05T22:40:49.483Z,10.93
2022-08-05T22:43:22.590Z,12.05
2022-08-05T22:46:12.159Z,9.05
2022-08-05T22:48:41.999Z,13.25
2022-08-05T22:51:15.950Z,10.88
2022-08-05T22:53:51.881Z,10.75
2022-08-05T22:56:30.250Z,10.65
2022-08-05T22:59:04.187Z,10.70
2022-08-05T23:02:04.311Z,11.15
2022-08-05T23:04:33.720Z,9.75
2022-08-05T23:07:00.762Z,10.48
2022-08-05T23:09:58.256Z,11.50
2022-08-05T23:12:17.996Z,8.60
2022-08-05T23:14:45.051Z,10.70
2022-08-05T23:17:34.229Z,9.88
2022-08-05T23:20:15.497Z,10.93
2022-08-05T23:22:48.646Z,11.55
2022-08-05T23:25:52.253Z,12.98
2022-08-05T23:28:06.927Z,14.27
2022-08-05T23:30:40.515Z,12.07
2022-08-05T23:35:50.898Z,10.65
2022-08-05T23:38:18.258Z,11.63
2022-08-05T23:40:50.108Z,10.45
2022-08-05T23:43:25.293Z,11.63
2022-08-05T23:46:20.048Z,14.68
2022-08-05T23:49:00.840Z,14.73
2022-08-05T23:51:55.217Z,11.30
2022-08-05T23:54:30.224Z,14.27
2022-08-05T23:57:04.122Z,16.38
